Time;durP1;ratioP1;P1;durP2;ratioP2;P2;SDS_P1;SDS_P2;PMS_P1;PMS_P2;Temp;Humidity;BMP_temperature;BMP_pressure;BME280_temperature;BME280_humidity;BME280_pressure;Samples;Min_cycle;Max_cycle;Signal;HPM_P1;HPM_P2
2022/07/23 00:01:02;;;;;;;4.90;4.50;;;23.40;99.90;;;;;;5050527;28;20466;-69
2022/07/23 00:03:29;;;;;;;5.30;4.80;;;23.40;99.90;;;;;;5050474;28;20490;-69
2022/07/23 00:05:55;;;;;;;4.90;4.50;;;23.40;99.90;;;;;;5050466;28;20493;-70
2022/07/23 00:08:22;;;;;;;5.93;5.33;;;23.30;99.90;;;;;;5050743;28;20488;-70
2022/07/23 00:10:50;;;;;;;5.50;5.10;;;23.30;99.90;;;;;;5049270;28;20491;-70
2022/07/23 00:13:17;;;;;;;5.30;4.90;;;23.20;99.90;;;;;;5050842;28;20462;-70
2022/07/23 00:15:43;;;;;;;5.03;4.60;;;23.20;99.90;;;;;;5050521;28;20490;-70
2022/07/23 00:18:10;;;;;;;4.77;4.37;;;23.20;99.90;;;;;;5050733;28;20978;-70
2022/07/23 00:20:37;;;;;;;4.90;4.40;;;23.10;99.90;;;;;;5050133;28;21004;-70
2022/07/23 00:23:03;;;;;;;5.13;4.73;;;23.00;99.90;;;;;;5050500;28;20491;-70
2022/07/23 00:25:30;;;;;;;4.90;4.50;;;23.00;99.90;;;;;;5050380;28;20489;-70
2022/07/23 00:27:58;;;;;;;4.20;3.90;;;23.00;99.90;;;;;;5050438;28;20466;-70
2022/07/23 00:30:25;;;;;;;5.33;4.83;;;22.90;99.90;;;;;;5049985;28;20473;-70
2022/07/23 00:32:56;;;;;;;4.67;4.27;;;22.90;99.90;;;;;;5050600;28;20973;-70
2022/07/23 00:35:23;;;;;;;5.37;4.40;;;22.90;99.90;;;;;;5050072;28;21130;-70
2022/07/23 00:37:50;;;;;;;4.80;4.40;;;22.80;99.90;;;;;;5050678;28;20468;-70
2022/07/23 00:40:17;;;;;;;4.53;4.13;;;22.80;99.90;;;;;;5049664;28;20456;-71
2022/07/23 00:42:44;;;;;;;4.80;4.40;;;22.70;99.90;;;;;;5050771;28;20565;-70
2022/07/23 00:45:17;;;;;;;4.80;4.40;;;22.70;99.90;;;;;;5050974;28;20492;-70
2022/07/23 00:47:44;;;;;;;4.60;4.20;;;22.60;99.90;;;;;;5050053;28;20471;-70
2022/07/23 00:50:11;;;;;;;4.63;4.23;;;22.60;99.90;;;;;;5050192;28;20469;-70
2022/07/23 00:52:39;;;;;;;4.93;4.53;;;22.50;99.90;;;;;;5050081;28;21152;-70
2022/07/23 00:55:07;;;;;;;4.60;4.20;;;22.40;99.90;;;;;;5050380;28;20492;-70
2022/07/23 00:57:34;;;;;;;4.90;4.50;;;22.40;99.90;;;;;;5050075;28;20474;-70
2022/07/23 01:00:01;;;;;;;4.90;4.40;;;22.30;99.90;;;;;;5049610;28;20963;-71
2022/07/23 01:02:29;;;;;;;5.47;4.97;;;22.30;99.90;;;;;;5050075;28;20485;-70
2022/07/23 01:04:56;;;;;;;4.60;4.20;;;22.30;99.90;;;;;;5052654;28;20486;-70
2022/07/23 01:07:23;;;;;;;5.30;4.37;;;22.30;99.90;;;;;;5054165;28;20461;-70
2022/07/23 01:09:51;;;;;;;5.43;4.17;;;22.30;99.90;;;;;;5053215;28;20466;-70
2022/07/23 01:12:18;;;;;;;4.93;4.53;;;22.20;99.90;;;;;;5053928;28;20943;-70
2022/07/23 01:14:45;;;;;;;5.03;4.50;;;22.20;99.90;;;;;;5053937;28;20950;-70
2022/07/23 01:17:11;;;;;;;4.60;4.17;;;22.20;99.90;;;;;;5053734;28;20472;-70
2022/07/23 01:19:39;;;;;;;5.10;4.57;;;22.20;99.90;;;;;;5053148;28;20461;-69
2022/07/23 01:22:07;;;;;;;4.50;4.20;;;22.10;99.90;;;;;;5053710;28;20489;-70
2022/07/23 01:24:35;;;;;;;4.60;4.17;;;22.10;99.90;;;;;;5053310;28;20464;-69
2022/07/23 01:27:01;;;;;;;4.30;3.80;;;22.00;99.90;;;;;;5053869;28;20847;-70
2022/07/23 01:29:28;;;;;;;4.10;3.80;;;22.00;99.90;;;;;;5052535;28;20460;-70
2022/07/23 01:31:55;;;;;;;4.47;4.07;;;22.00;99.90;;;;;;5053765;28;20468;-70
2022/07/23 01:34:21;;;;;;;4.50;4.10;;;22.00;99.90;;;;;;5053369;28;20816;-69
2022/07/23 01:36:48;;;;;;;5.00;3.77;;;22.00;99.90;;;;;;5053383;28;20488;-70
2022/07/23 01:39:15;;;;;;;4.17;3.80;;;22.00;99.90;;;;;;5052811;28;20464;-69
2022/07/23 01:41:43;;;;;;;4.60;4.20;;;22.10;99.90;;;;;;5052985;28;20463;-70
2022/07/23 01:44:09;;;;;;;4.43;4.03;;;22.00;99.90;;;;;;5053481;28;20684;-70
2022/07/23 01:46:36;;;;;;;4.53;4.17;;;22.00;99.90;;;;;;5053028;28;20480;-70
2022/07/23 01:49:03;;;;;;;4.70;4.30;;;22.00;99.90;;;;;;5053207;28;20460;-70
2022/07/23 01:51:29;;;;;;;4.10;3.80;;;22.00;99.90;;;;;;5053026;28;20932;-69
2022/07/23 01:53:56;;;;;;;4.53;4.13;;;21.90;99.90;;;;;;5052897;28;20460;-70
2022/07/23 01:56:23;;;;;;;5.13;4.60;;;21.80;99.90;;;;;;5052863;28;20486;-70
2022/07/23 01:58:51;;;;;;;4.63;4.27;;;21.70;99.90;;;;;;5052907;28;20457;-70
2022/07/23 02:01:18;;;;;;;4.37;3.97;;;21.70;99.90;;;;;;5052709;28;20475;-70
2022/07/23 02:03:44;;;;;;;4.60;4.20;;;21.70;99.90;;;;;;5052931;28;20488;-69
2022/07/23 02:06:11;;;;;;;4.07;3.73;;;21.70;99.90;;;;;;5052527;28;21018;-71
2022/07/23 02:08:38;;;;;;;4.50;4.10;;;21.70;99.90;;;;;;5052769;28;20470;-71
2022/07/23 02:11:04;;;;;;;5.10;4.47;;;21.70;99.90;;;;;;5052215;28;20458;-70
2022/07/23 02:13:31;;;;;;;3.87;3.57;;;21.60;99.90;;;;;;5052769;28;20483;-69
2022/07/23 02:15:59;;;;;;;4.73;4.30;;;21.50;99.90;;;;;;5051788;28;20547;-70
2022/07/23 02:18:26;;;;;;;4.50;4.10;;;21.40;99.90;;;;;;5052457;28;20465;-70
2022/07/23 02:20:52;;;;;;;4.70;4.30;;;21.40;99.90;;;;;;5052299;28;20461;-70
2022/07/23 02:23:19;;;;;;;4.70;4.30;;;21.30;99.90;;;;;;5052275;28;20484;-70
2022/07/23 02:25:46;;;;;;;4.40;4.00;;;21.30;99.90;;;;;;5052632;28;20483;-69
2022/07/23 02:28:12;;;;;;;5.20;4.70;;;21.30;99.90;;;;;;5052381;28;21014;-70
2022/07/23 02:30:39;;;;;;;6.20;4.97;;;21.30;99.90;;;;;;5051911;28;20464;-70
2022/07/23 02:33:07;;;;;;;4.40;4.00;;;21.30;99.90;;;;;;5052608;28;20461;-70
2022/07/23 02:35:34;;;;;;;5.03;4.43;;;21.30;99.90;;;;;;5051900;28;21226;-70
2022/07/23 02:38:01;;;;;;;4.90;4.40;;;21.20;99.90;;;;;;5052474;28;20464;-69
2022/07/23 02:40:27;;;;;;;5.20;4.70;;;21.20;99.90;;;;;;5051340;28;20463;-70
2022/07/23 02:42:54;;;;;;;5.10;4.60;;;21.10;99.90;;;;;;5052475;28;20488;-70
2022/07/23 02:45:21;;;;;;;5.30;4.80;;;21.10;99.90;;;;;;5052289;28;20491;-70
2022/07/23 02:47:47;;;;;;;4.50;4.10;;;21.20;99.90;;;;;;5051957;28;20467;-68
2022/07/23 02:50:15;;;;;;;6.10;4.60;;;21.20;99.90;;;;;;5051711;28;20846;-70
2022/07/23 02:52:42;;;;;;;5.23;4.83;;;21.20;99.90;;;;;;5051758;28;20473;-69
2022/07/23 02:55:09;;;;;;;4.73;4.33;;;21.20;99.90;;;;;;5052128;28;21015;-70
2022/07/23 02:57:37;;;;;;;5.73;5.17;;;21.30;99.90;;;;;;5052094;28;21109;-70
2022/07/23 03:00:05;;;;;;;5.30;4.90;;;21.30;99.90;;;;;;5051321;28;20467;-70
2022/07/23 03:02:32;;;;;;;4.63;4.23;;;21.30;99.90;;;;;;5052021;28;20561;-69
2022/07/23 03:04:59;;;;;;;5.10;4.70;;;21.30;99.90;;;;;;5051566;28;20484;-69
2022/07/23 03:07:27;;;;;;;5.00;4.60;;;21.30;99.90;;;;;;5051946;28;20460;-69
2022/07/23 03:09:53;;;;;;;4.93;4.53;;;21.40;99.90;;;;;;5050997;28;20464;-70
2022/07/23 03:12:20;;;;;;;6.33;4.30;;;21.30;99.90;;;;;;5051909;28;20468;-69
2022/07/23 03:14:47;;;;;;;4.87;4.47;;;21.30;99.90;;;;;;5051697;28;21129;-70
2022/07/23 03:17:13;;;;;;;5.00;4.50;;;21.40;99.90;;;;;;5051345;28;20855;-69
2022/07/23 03:19:40;;;;;;;5.20;4.70;;;21.40;99.90;;;;;;5051099;28;20463;-69
2022/07/23 03:22:07;;;;;;;5.10;4.60;;;21.40;99.90;;;;;;5051340;28;20467;-69
2022/07/23 03:27:19;;;;;;;5.20;4.67;;;21.40;99.90;;;;;;5051721;28;20444;-69
2022/07/23 03:29:46;;;;;;;5.00;4.30;;;21.30;99.90;;;;;;5050631;28;20980;-68
2022/07/23 03:32:12;;;;;;;5.47;4.97;;;21.40;99.90;;;;;;5051674;28;20472;-69
2022/07/23 03:34:39;;;;;;;5.07;4.67;;;21.40;99.90;;;;;;5050913;28;20464;-70
2022/07/23 03:37:06;;;;;;;5.70;5.20;;;21.30;99.90;;;;;;5051497;28;20482;-70
2022/07/23 03:39:33;;;;;;;8.00;4.83;;;21.30;99.90;;;;;;5049976;28;20471;-68
2022/07/23 03:42:01;;;;;;;5.40;5.00;;;21.40;99.90;;;;;;5051256;28;20467;-69
2022/07/23 03:44:27;;;;;;;5.10;4.70;;;21.30;99.90;;;;;;5050454;28;20489;-69
2022/07/23 03:46:54;;;;;;;5.30;4.80;;;21.30;99.90;;;;;;5050307;28;21016;-70
2022/07/23 03:49:21;;;;;;;4.70;4.40;;;21.20;99.90;;;;;;5050336;28;20803;-70
2022/07/23 03:51:47;;;;;;;6.97;4.80;;;21.20;99.90;;;;;;5051331;28;20845;-70
2022/07/23 03:54:14;;;;;;;5.10;4.70;;;21.10;99.90;;;;;;5051095;28;20934;-70
2022/07/23 03:59:16;;;;;;;5.43;5.03;;;21.10;99.90;;;;;;5008909;28;20474;-69
2022/07/23 04:01:42;;;;;;;5.60;5.10;;;21.10;99.90;;;;;;5011210;28;20520;-70
2022/07/23 04:04:09;;;;;;;5.13;4.73;;;21.00;99.90;;;;;;5011298;28;20490;-70
2022/07/23 04:06:36;;;;;;;5.63;5.00;;;21.00;99.90;;;;;;5011336;28;20481;-70
2022/07/23 04:09:04;;;;;;;5.20;4.70;;;21.00;99.90;;;;;;5010700;28;20462;-70
2022/07/23 04:11:31;;;;;;;6.00;5.47;;;20.90;99.90;;;;;;5011130;28;20460;-71
2022/07/23 04:13:57;;;;;;;5.70;4.97;;;21.00;99.90;;;;;;5010777;28;20455;-71
2022/07/23 04:16:25;;;;;;;5.10;4.60;;;20.90;99.90;;;;;;5011423;28;21001;-71
2022/07/23 04:18:52;;;;;;;5.60;5.10;;;20.90;99.90;;;;;;5010772;28;20463;-71
2022/07/23 04:21:19;;;;;;;6.40;5.80;;;20.90;99.90;;;;;;5010700;28;20457;-70
2022/07/23 04:23:45;;;;;;;4.90;4.50;;;20.90;99.90;;;;;;5011009;28;20517;-70
2022/07/23 04:26:12;;;;;;;5.67;5.20;;;20.90;99.90;;;;;;5010555;28;20566;-69
2022/07/23 04:28:39;;;;;;;6.13;5.40;;;20.90;99.90;;;;;;5010903;28;20469;-69
2022/07/23 04:31:05;;;;;;;4.93;4.53;;;20.80;99.90;;;;;;5009983;28;20470;-69
2022/07/23 04:33:33;;;;;;;6.13;5.20;;;20.90;99.90;;;;;;5010896;28;20454;-69
2022/07/23 04:36:00;;;;;;;5.70;5.20;;;20.90;99.90;;;;;;5010460;28;20478;-69
2022/07/23 04:38:27;;;;;;;5.90;5.40;;;20.90;99.90;;;;;;5010326;28;20462;-69
2022/07/23 04:40:53;;;;;;;5.67;5.13;;;20.90;99.90;;;;;;5010147;28;20478;-69
2022/07/23 04:43:20;;;;;;;5.80;5.20;;;20.90;99.90;;;;;;5010515;28;20516;-69
2022/07/23 04:45:47;;;;;;;5.17;4.77;;;20.90;99.90;;;;;;5010780;28;20928;-69
2022/07/23 04:48:14;;;;;;;5.30;4.80;;;20.90;99.90;;;;;;5010263;28;21115;-68
2022/07/23 04:50:42;;;;;;;6.53;5.20;;;20.90;99.90;;;;;;5010432;28;20459;-69
2022/07/23 04:53:09;;;;;;;5.37;4.87;;;20.80;99.90;;;;;;5010449;28;20497;-69
2022/07/23 04:55:36;;;;;;;6.23;5.47;;;20.90;99.90;;;;;;5010702;28;20485;-69
2022/07/23 04:58:02;;;;;;;5.60;5.00;;;20.80;99.90;;;;;;5010061;28;20993;-69
2022/07/23 05:00:29;;;;;;;5.20;4.70;;;20.80;99.90;;;;;;5010181;28;20461;-68
2022/07/23 05:02:56;;;;;;;5.00;4.60;;;20.80;99.90;;;;;;5010314;28;20462;-68
2022/07/23 05:05:23;;;;;;;6.57;5.60;;;20.90;99.90;;;;;;5010475;28;20815;-69
2022/07/23 05:07:51;;;;;;;5.37;4.87;;;20.90;99.90;;;;;;5010749;28;20462;-68
2022/07/23 05:10:18;;;;;;;5.40;4.90;;;20.90;99.90;;;;;;5009674;28;20953;-69
2022/07/23 05:12:44;;;;;;;5.50;5.00;;;21.00;99.90;;;;;;5129606;22;21639;-70
2022/07/23 05:15:11;;;;;;;6.27;5.67;;;21.00;99.90;;;;;;5069489;28;20483;-70
2022/07/23 05:17:38;;;;;;;5.10;4.70;;;21.00;99.90;;;;;;5070135;28;20463;-70
2022/07/23 05:20:05;;;;;;;5.30;4.90;;;21.00;99.90;;;;;;5068628;28;20841;-70
2022/07/23 05:22:32;;;;;;;5.37;4.97;;;21.00;99.90;;;;;;5070105;28;20985;-69
2022/07/23 05:25:00;;;;;;;6.25;5.72;;;21.00;99.90;;;;;;5069222;28;20499;-70
2022/07/23 05:27:27;;;;;;;6.03;5.37;;;21.00;99.90;;;;;;5069549;28;20871;-70
2022/07/23 05:29:54;;;;;;;5.93;5.43;;;21.00;99.90;;;;;;5069507;28;20463;-70
2022/07/23 05:32:20;;;;;;;6.10;5.50;;;21.00;99.90;;;;;;5069350;28;20464;-70
2022/07/23 05:34:47;;;;;;;5.87;5.07;;;21.10;99.90;;;;;;5070055;28;20470;-70
2022/07/23 05:37:14;;;;;;;5.53;5.07;;;21.10;99.90;;;;;;5069761;28;20458;-70
2022/07/23 05:39:41;;;;;;;5.87;5.37;;;21.10;99.90;;;;;;5069355;28;20941;-70
2022/07/23 05:42:09;;;;;;;6.23;5.70;;;21.20;99.90;;;;;;5070030;28;20484;-70
2022/07/23 05:44:35;;;;;;;7.40;5.50;;;21.20;99.90;;;;;;5069526;28;20491;-70
2022/07/23 05:47:02;;;;;;;6.40;5.80;;;21.20;99.90;;;;;;5069903;28;20490;-70
2022/07/23 05:49:29;;;;;;;6.40;5.80;;;21.20;99.90;;;;;;5068856;28;20464;-70
2022/07/23 05:51:56;;;;;;;5.60;5.10;;;21.20;99.90;;;;;;5072782;28;20459;-69
2022/07/23 05:54:22;;;;;;;6.50;5.90;;;21.30;99.90;;;;;;5072969;28;20463;-69
2022/07/23 05:56:50;;;;;;;6.90;5.93;;;21.30;99.90;;;;;;5073461;28;20485;-69
2022/07/23 05:59:18;;;;;;;6.63;6.07;;;21.40;99.90;;;;;;5072642;28;20463;-69
2022/07/23 06:01:44;;;;;;;7.20;5.30;;;21.40;99.90;;;;;;5073075;28;20836;-69
2022/07/23 06:04:11;;;;;;;5.88;5.38;;;21.50;99.90;;;;;;5073123;28;20482;-69
2022/07/23 06:06:38;;;;;;;6.90;6.30;;;21.50;99.90;;;;;;5072936;28;20735;-69
2022/07/23 06:09:04;;;;;;;5.90;5.30;;;21.50;99.90;;;;;;5072834;28;20951;-67
2022/07/23 06:11:31;;;;;;;6.30;5.40;;;21.60;99.90;;;;;;5072372;28;20524;-69
2022/07/23 06:13:58;;;;;;;6.13;5.53;;;21.60;99.90;;;;;;5072962;28;20460;-69
2022/07/23 06:16:26;;;;;;;6.20;5.70;;;21.60;99.90;;;;;;5072574;28;20484;-68
2022/07/23 06:18:53;;;;;;;6.37;5.77;;;21.70;99.90;;;;;;5072845;28;20464;-68
2022/07/23 06:21:19;;;;;;;6.20;5.70;;;21.70;99.90;;;;;;5072237;28;20463;-69
2022/07/23 06:23:46;;;;;;;6.03;5.53;;;21.80;99.90;;;;;;5072688;28;20483;-69
2022/07/23 06:26:13;;;;;;;6.37;5.77;;;21.80;99.90;;;;;;5072944;28;20488;-69
2022/07/23 06:28:39;;;;;;;6.03;5.43;;;21.80;99.90;;;;;;5072542;28;20463;-68
2022/07/23 06:31:06;;;;;;;6.47;5.83;;;21.90;99.90;;;;;;5072110;28;20487;-69
2022/07/23 06:33:34;;;;;;;6.53;5.77;;;22.00;99.90;;;;;;5072452;28;20467;-68
2022/07/23 06:36:01;;;;;;;7.93;5.93;;;22.00;99.90;;;;;;5072691;28;20482;-69
2022/07/23 06:38:28;;;;;;;6.00;5.40;;;22.00;99.90;;;;;;5072358;28;20471;-69
2022/07/23 06:40:54;;;;;;;5.83;5.33;;;22.10;99.90;;;;;;5072235;28;20459;-68
2022/07/23 06:43:21;;;;;;;6.43;5.83;;;22.10;99.90;;;;;;5072360;28;20464;-69
2022/07/23 06:45:48;;;;;;;6.70;6.10;;;22.20;99.90;;;;;;5072099;28;20485;-69
2022/07/23 06:48:14;;;;;;;5.73;5.23;;;22.20;99.90;;;;;;5071281;28;20840;-68
2022/07/23 06:50:42;;;;;;;6.53;6.03;;;22.30;99.90;;;;;;5071524;28;20884;-68
2022/07/23 06:53:09;;;;;;;6.07;5.50;;;22.30;99.90;;;;;;5072448;28;20467;-68
2022/07/23 06:55:38;;;;;;;6.03;5.53;;;22.30;99.90;;;;;;5071534;28;20832;-68
2022/07/23 06:58:05;;;;;;;6.00;5.50;;;22.30;99.90;;;;;;5072357;28;20939;-69
2022/07/23 07:00:32;;;;;;;6.00;5.30;;;22.30;99.90;;;;;;5071601;28;20463;-70
2022/07/23 07:02:59;;;;;;;5.70;5.20;;;22.30;99.90;;;;;;5071398;28;20459;-69
2022/07/23 07:05:27;;;;;;;5.97;5.47;;;22.40;99.90;;;;;;5072059;28;20494;-68
2022/07/23 07:07:55;;;;;;;6.90;6.10;;;22.40;99.90;;;;;;5071615;28;20464;-69
2022/07/23 07:10:22;;;;;;;5.90;5.40;;;22.40;99.90;;;;;;5070859;28;20464;-69
2022/07/23 07:12:49;;;;;;;6.20;5.70;;;22.40;99.90;;;;;;5071375;28;20473;-69
2022/07/23 07:15:15;;;;;;;8.10;6.33;;;22.40;99.90;;;;;;5071722;28;20479;-69
2022/07/23 07:17:43;;;;;;;8.40;5.70;;;22.40;99.90;;;;;;5071696;28;20465;-69
2022/07/23 07:20:11;;;;;;;6.43;5.70;;;22.40;99.90;;;;;;5070754;28;20563;-69
2022/07/23 07:22:37;;;;;;;6.57;6.03;;;22.40;99.90;;;;;;5071659;28;20459;-68
2022/07/23 07:25:07;;;;;;;6.83;6.17;;;22.40;99.90;;;;;;5071228;28;21005;-69
2022/07/23 07:27:33;;;;;;;6.50;5.90;;;22.40;99.90;;;;;;5071444;28;20461;-69
2022/07/23 07:30:00;;;;;;;5.70;5.20;;;22.40;99.90;;;;;;5070652;28;20971;-69
2022/07/23 07:32:27;;;;;;;6.13;5.63;;;22.30;99.90;;;;;;5071657;28;20465;-69
2022/07/23 07:34:53;;;;;;;6.47;5.57;;;22.30;99.90;;;;;;5071105;28;20462;-69
2022/07/23 07:37:20;;;;;;;5.30;4.90;;;22.30;99.90;;;;;;5071212;28;20464;-68
2022/07/23 07:39:47;;;;;;;5.80;5.30;;;22.40;99.90;;;;;;5070743;28;20465;-69
2022/07/23 07:42:15;;;;;;;5.70;5.20;;;22.40;99.90;;;;;;5071126;28;20471;-69
2022/07/23 07:44:42;;;;;;;6.20;5.70;;;22.40;99.90;;;;;;5071075;28;20495;-69
2022/07/23 07:47:08;;;;;;;5.73;5.20;;;22.50;99.90;;;;;;5070945;28;20500;-69
2022/07/23 07:49:35;;;;;;;5.50;5.00;;;22.60;99.90;;;;;;5070525;28;20460;-69
2022/07/23 07:52:02;;;;;;;5.90;5.40;;;22.60;99.90;;;;;;5070916;28;20547;-69
2022/07/23 07:54:28;;;;;;;8.43;5.53;;;22.80;99.90;;;;;;5070947;28;20458;-70
2022/07/23 07:56:55;;;;;;;6.57;5.90;;;23.00;99.90;;;;;;5071062;28;21027;-68
2022/07/23 07:59:23;;;;;;;5.87;5.37;;;23.10;99.90;;;;;;5070115;28;20471;-69
2022/07/23 08:01:50;;;;;;;6.80;6.10;;;23.20;99.90;;;;;;5071040;28;20470;-69
2022/07/23 08:04:17;;;;;;;6.90;6.30;;;23.20;99.90;;;;;;5070490;28;20493;-69
2022/07/23 08:06:43;;;;;;;8.77;6.73;;;23.10;99.90;;;;;;5070210;28;21004;-70
2022/07/23 08:09:10;;;;;;;6.10;5.47;;;23.10;99.90;;;;;;5070291;28;20461;-68
2022/07/23 08:11:37;;;;;;;6.17;5.67;;;23.00;99.90;;;;;;5070716;28;20978;-69
2022/07/23 08:14:04;;;;;;;7.07;5.20;;;23.10;99.90;;;;;;5069253;28;20468;-69
2022/07/23 08:16:32;;;;;;;6.30;5.80;;;23.10;99.90;;;;;;5070593;28;20493;-69
2022/07/23 08:18:59;;;;;;;6.17;5.70;;;23.10;99.90;;;;;;5070600;28;20541;-69
2022/07/23 08:21:25;;;;;;;6.33;5.73;;;23.10;99.90;;;;;;5070038;28;20470;-69
2022/07/23 08:23:52;;;;;;;6.10;5.50;;;23.10;99.90;;;;;;5070700;28;20472;-70
2022/07/23 08:26:19;;;;;;;5.73;5.30;;;23.10;99.90;;;;;;5070262;28;20484;-69
2022/07/23 08:28:46;;;;;;;5.77;5.27;;;23.00;99.90;;;;;;5070594;28;20539;-69
2022/07/23 08:31:12;;;;;;;5.90;5.40;;;23.00;99.90;;;;;;5069715;28;20461;-69
2022/07/23 08:33:40;;;;;;;6.33;5.73;;;23.00;99.90;;;;;;5069622;28;20823;-70
2022/07/23 08:36:08;;;;;;;5.13;4.73;;;23.00;99.90;;;;;;5068257;28;20483;-70
2022/07/23 08:38:35;;;;;;;5.57;4.87;;;23.10;99.90;;;;;;5065655;28;20458;-70
2022/07/23 08:41:04;;;;;;;6.17;5.50;;;23.30;99.90;;;;;;5068276;28;20453;-71
2022/07/23 08:43:34;;;;;;;5.77;5.37;;;23.50;99.90;;;;;;5068138;28;20465;-70
2022/07/23 08:46:02;;;;;;;6.10;5.60;;;23.70;99.90;;;;;;5068822;28;20900;-69
2022/07/23 08:48:31;;;;;;;6.00;5.53;;;23.90;99.90;;;;;;5069935;28;20544;-70
2022/07/23 08:51:01;;;;;;;5.83;5.00;;;24.00;99.90;;;;;;5068933;28;20522;-71
2022/07/23 08:53:30;;;;;;;5.50;5.00;;;24.00;99.90;;;;;;5069917;28;20459;-70
2022/07/23 08:55:58;;;;;;;5.47;4.97;;;24.20;99.90;;;;;;5069479;28;20514;-71
2022/07/23 08:58:26;;;;;;;5.80;5.30;;;24.30;99.90;;;;;;5069952;28;20500;-71
2022/07/23 09:00:53;;;;;;;5.63;5.10;;;24.40;99.90;;;;;;5067686;28;20548;-71
2022/07/23 09:03:22;;;;;;;5.03;4.63;;;24.40;99.90;;;;;;5068585;28;20501;-68
2022/07/23 09:05:51;;;;;;;6.17;5.67;;;24.50;99.90;;;;;;5069069;28;20494;-68
2022/07/23 09:08:21;;;;;;;5.30;4.90;;;24.40;99.90;;;;;;5068093;28;20465;-68
2022/07/23 09:10:53;;;;;;;5.63;5.13;;;24.40;99.90;;;;;;5068825;28;20458;-68
2022/07/23 09:13:33;;;;;;;5.90;5.37;;;24.40;99.90;;;;;;5068269;28;20470;-68
2022/07/23 09:16:02;;;;;;;6.00;5.50;;;24.40;99.90;;;;;;5068213;28;20943;-68
2022/07/23 09:18:34;;;;;;;5.33;4.90;;;24.50;99.90;;;;;;5068348;28;20470;-71
2022/07/23 09:21:29;;;;;;;4.90;4.50;;;24.60;99.90;;;;;;5068410;28;20473;-71
2022/07/23 09:26:31;;;;;;;5.40;4.90;;;24.80;99.90;;;;;;4992177;28;20536;-72
2022/07/23 09:29:05;;;;;;;5.93;5.37;;;24.90;99.90;;;;;;4994268;28;20871;-72
2022/07/23 09:31:35;;;;;;;5.73;5.23;;;25.10;99.90;;;;;;4994110;28;20469;-72
2022/07/23 09:34:09;;;;;;;7.20;5.93;;;25.30;99.90;;;;;;4993739;28;20524;-72
2022/07/23 09:36:37;;;;;;;5.80;5.20;;;25.50;99.90;;;;;;4994533;28;20546;-72
2022/07/23 09:39:05;;;;;;;6.70;6.10;;;25.60;99.90;;;;;;4993833;28;20462;-72
2022/07/23 09:41:38;;;;;;;5.90;5.40;;;25.70;99.90;;;;;;4973416;28;21019;-72
2022/07/23 09:44:10;;;;;;;7.60;5.20;;;25.80;99.90;;;;;;4974620;28;20460;-72
2022/07/23 09:46:39;;;;;;;6.50;5.80;;;25.90;99.90;;;;;;4974251;28;20523;-72
2022/07/23 09:49:13;;;;;;;5.83;5.33;;;26.00;99.90;;;;;;4974108;28;20851;-72
2022/07/23 09:51:55;;;;;;;6.57;5.97;;;26.10;99.90;;;;;;4973742;28;20471;-72
2022/07/23 09:54:30;;;;;;;6.73;5.33;;;26.20;99.90;;;;;;4974230;28;21043;-72
2022/07/23 09:57:03;;;;;;;6.13;5.57;;;26.30;99.90;;;;;;4974131;28;20489;-72
2022/07/23 09:59:34;;;;;;;6.67;6.17;;;26.40;99.90;;;;;;4974311;28;20523;-72
2022/07/23 10:02:08;;;;;;;6.87;6.27;;;26.50;99.90;;;;;;4973996;28;20530;-71
2022/07/23 10:04:38;;;;;;;7.13;6.53;;;26.60;99.90;;;;;;4973856;28;20521;-72
2022/07/23 10:07:06;;;;;;;6.70;6.07;;;26.50;99.90;;;;;;4974283;28;20985;-72
2022/07/23 10:09:36;;;;;;;6.77;6.27;;;26.40;99.90;;;;;;4973463;28;20464;-72
2022/07/23 10:12:14;;;;;;;6.43;5.83;;;26.50;99.90;;;;;;4974177;28;20463;-72
2022/07/23 10:14:41;;;;;;;7.03;6.40;;;26.60;99.90;;;;;;4974221;28;20820;-72
2022/07/23 10:22:14;;;;;;;7.37;6.77;;;26.90;99.90;;;;;;5049671;28;20520;-70
2022/07/23 10:24:51;;;;;;;7.37;6.67;;;26.80;99.90;;;;;;5033986;28;20461;-73
2022/07/23 10:27:44;;;;;;;6.23;5.60;;;26.90;99.90;;;;;;5033880;28;20464;-70
2022/07/23 10:30:18;;;;;;;5.60;5.10;;;27.00;99.90;;;;;;5034727;28;20465;-70
2022/07/23 10:32:55;;;;;;;7.60;6.23;;;27.00;99.90;;;;;;5033976;28;21040;-70
2022/07/23 10:35:29;;;;;;;6.60;6.00;;;27.00;99.90;;;;;;5033557;28;20904;-70
2022/07/23 10:38:02;;;;;;;6.10;5.50;;;26.90;99.90;;;;;;5033098;28;20468;-70
2022/07/23 10:40:32;;;;;;;6.00;5.50;;;26.70;99.90;;;;;;5033472;28;20576;-70
2022/07/23 10:43:02;;;;;;;5.70;5.20;;;26.80;99.90;;;;;;5033362;28;20461;-70
2022/07/23 10:45:32;;;;;;;6.03;5.53;;;27.00;99.90;;;;;;5031455;28;20484;-70
2022/07/23 10:48:15;;;;;;;5.90;5.40;;;27.20;99.90;;;;;;5032665;28;20544;-70
2022/07/23 10:50:44;;;;;;;6.10;5.60;;;27.50;99.90;;;;;;5031656;28;20461;-71
2022/07/23 10:53:18;;;;;;;6.73;6.13;;;27.70;99.90;;;;;;5032804;28;20869;-70
2022/07/23 10:55:49;;;;;;;5.93;5.43;;;27.80;99.90;;;;;;5031349;28;20480;-70
2022/07/23 10:58:49;;;;;;;5.90;5.40;;;27.60;99.90;;;;;;5032497;28;20467;-70
2022/07/23 11:01:36;;;;;;;5.90;5.30;;;27.50;99.90;;;;;;5032098;28;21004;-70
2022/07/23 11:04:07;;;;;;;6.00;5.50;;;27.50;99.80;;;;;;5032309;28;20576;-70
2022/07/23 11:07:09;;;;;;;5.60;5.20;;;27.40;99.90;;;;;;5034996;28;20480;-70
2022/07/23 11:09:41;;;;;;;5.50;5.10;;;27.30;99.90;;;;;;5052257;28;20459;-71
2022/07/23 11:12:36;;;;;;;6.03;5.53;;;27.30;99.90;;;;;;5052551;28;20484;-70
2022/07/23 11:15:07;;;;;;;6.30;5.70;;;27.50;99.90;;;;;;5052291;28;20889;-71
2022/07/23 11:17:37;;;;;;;5.50;5.10;;;27.70;99.90;;;;;;5034219;28;20472;-71
2022/07/23 11:20:24;;;;;;;6.00;5.40;;;27.80;99.90;;;;;;5033992;28;20457;-71
2022/07/23 11:22:53;;;;;;;5.70;5.30;;;27.70;99.50;;;;;;5052812;28;20467;-73
2022/07/23 11:25:36;;;;;;;6.10;5.60;;;27.70;99.90;;;;;;5052115;28;20487;-72
2022/07/23 11:28:20;;;;;;;5.70;5.17;;;27.60;99.90;;;;;;5053576;28;20952;-71
2022/07/23 11:30:49;;;;;;;6.20;5.70;;;27.50;99.90;;;;;;5052098;28;20500;-71
2022/07/23 11:33:22;;;;;;;6.37;5.80;;;27.50;99.90;;;;;;5052737;28;20842;-70
2022/07/23 11:35:59;;;;;;;5.90;5.40;;;27.60;99.90;;;;;;5053404;28;20494;-73
2022/07/23 11:38:26;;;;;;;6.80;6.20;;;27.80;99.90;;;;;;5053384;28;20527;-71
2022/07/23 11:40:56;;;;;;;6.37;5.87;;;27.90;99.90;;;;;;5051898;28;20468;-72
2022/07/23 11:43:23;;;;;;;5.83;5.33;;;27.90;99.80;;;;;;5053069;28;20464;-71
2022/07/23 11:45:53;;;;;;;6.17;5.67;;;27.90;99.90;;;;;;5052860;28;20537;-71
2022/07/23 11:48:25;;;;;;;5.83;5.30;;;27.70;99.90;;;;;;5052774;28;20471;-71
2022/07/23 11:50:53;;;;;;;6.03;5.53;;;27.60;99.90;;;;;;5052022;28;20867;-71
2022/07/23 11:53:24;;;;;;;5.43;4.93;;;27.50;98.90;;;;;;5051496;28;20456;-71
2022/07/23 11:55:52;;;;;;;6.30;5.80;;;27.60;99.90;;;;;;5051867;28;20821;-72
2022/07/23 11:58:19;;;;;;;5.90;5.40;;;27.70;99.90;;;;;;5052203;28;20499;-72
2022/07/23 12:00:45;;;;;;;5.93;5.43;;;27.70;99.90;;;;;;5050070;28;20456;-72
2022/07/23 12:03:14;;;;;;;6.40;5.80;;;27.70;99.90;;;;;;5052081;28;21010;-72
2022/07/23 12:05:41;;;;;;;6.07;5.57;;;27.60;99.90;;;;;;5051520;28;20911;-72
2022/07/23 12:08:09;;;;;;;6.20;5.60;;;27.50;99.90;;;;;;5050676;28;20463;-72
2022/07/23 12:10:38;;;;;;;5.80;5.30;;;27.40;99.90;;;;;;5050945;28;20459;-72
2022/07/23 12:13:06;;;;;;;6.80;6.30;;;27.20;99.90;;;;;;5051872;28;20483;-72
2022/07/23 12:15:38;;;;;;;6.27;5.77;;;27.10;99.90;;;;;;5051145;28;20486;-73
2022/07/23 12:18:06;;;;;;;6.53;5.93;;;27.10;99.90;;;;;;5051948;28;20460;-71
2022/07/23 12:20:39;;;;;;;5.40;5.00;;;27.30;99.90;;;;;;5050464;28;20459;-72
2022/07/23 12:23:08;;;;;;;6.10;5.60;;;27.40;99.50;;;;;;5052212;28;20467;-72
2022/07/23 12:25:37;;;;;;;5.67;5.20;;;27.50;99.10;;;;;;5051638;28;20487;-72
2022/07/23 12:28:07;;;;;;;7.07;6.50;;;27.60;99.90;;;;;;5051527;28;20461;-72
2022/07/23 12:30:38;;;;;;;6.90;6.30;;;27.70;99.90;;;;;;5050436;28;20543;-71
2022/07/23 12:33:06;;;;;;;6.90;6.40;;;27.70;98.50;;;;;;5051864;28;20468;-72
2022/07/23 12:35:38;;;;;;;5.80;5.40;;;27.40;98.40;;;;;;5051588;28;20487;-72
2022/07/23 12:38:07;;;;;;;6.03;5.53;;;27.40;99.50;;;;;;5051191;28;20503;-72
2022/07/23 12:40:36;;;;;;;6.00;5.50;;;27.50;99.50;;;;;;5050499;28;20871;-72
2022/07/23 12:43:06;;;;;;;6.53;6.03;;;27.60;99.00;;;;;;5051465;28;20967;-72
2022/07/23 12:45:47;;;;;;;6.40;5.90;;;27.70;99.80;;;;;;5050835;28;20483;-72
2022/07/23 12:48:19;;;;;;;6.63;6.03;;;27.70;99.60;;;;;;5051331;28;20466;-72
2022/07/23 12:50:52;;;;;;;6.87;6.30;;;27.70;99.90;;;;;;5050811;28;20590;-72
2022/07/23 12:53:22;;;;;;;7.10;6.50;;;27.50;99.50;;;;;;5051008;28;20471;-72
2022/07/23 12:55:49;;;;;;;6.57;5.97;;;27.30;99.30;;;;;;5051154;28;20563;-72
2022/07/23 12:58:18;;;;;;;7.13;6.30;;;27.10;99.20;;;;;;5050939;28;20464;-72
2022/07/23 13:00:57;;;;;;;7.27;6.57;;;27.10;99.90;;;;;;5052679;28;20460;-72
2022/07/23 13:03:26;;;;;;;7.17;6.00;;;27.00;99.30;;;;;;5055405;28;20467;-72
2022/07/23 13:05:54;;;;;;;6.00;5.57;;;27.00;99.90;;;;;;5055083;28;20492;-72
2022/07/23 13:08:23;;;;;;;7.80;6.23;;;27.00;99.90;;;;;;5054814;28;20467;-72